Time;durP1;ratioP1;P1;durP2;ratioP2;P2;SDS_P1;SDS_P2;PMS_P1;PMS_P2;Temp;Humidity;BMP_temperature;BMP_pressure;BME280_temperature;BME280_humidity;BME280_pressure;Samples;Min_cycle;Max_cycle;Signal;HPM_P1;HPM_P2
2021/12/18 00:01:08;;;;;;;14.70;7.87;;;;;;;2.89;79.10;95199.66;4992644;28;20725;-76
2021/12/18 00:03:34;;;;;;;16.70;9.20;;;;;;;2.95;78.85;95209.44;4992989;28;20174;-76
2021/12/18 00:05:59;;;;;;;18.63;9.03;;;;;;;2.76;78.48;95181.09;4993026;28;20180;-76
2021/12/18 00:08:25;;;;;;;17.23;9.30;;;;;;;2.73;78.85;95212.56;4992726;28;20181;-76
2021/12/18 00:10:52;;;;;;;18.47;8.43;;;;;;;2.46;79.51;95180.59;4992817;28;20188;-76
2021/12/18 00:13:18;;;;;;;19.13;9.80;;;;;;;2.53;79.90;95176.41;4992736;28;20256;-76
2021/12/18 00:15:44;;;;;;;16.57;8.37;;;;;;;2.70;79.29;95184.28;4992781;28;20331;-76
2021/12/18 00:18:09;;;;;;;18.40;9.00;;;;;;;2.73;79.97;95209.97;4992686;28;20308;-76
2021/12/18 00:20:37;;;;;;;19.30;9.93;;;;;;;2.69;79.43;95208.63;4991459;28;20189;-76
2021/12/18 00:23:03;;;;;;;20.67;10.60;;;;;;;2.69;79.60;95203.44;4992817;28;20190;-76
2021/12/18 00:25:28;;;;;;;20.53;9.47;;;;;;;2.76;79.60;95209.69;4992832;28;20185;-76
2021/12/18 00:27:54;;;;;;;22.00;9.93;;;;;;;2.82;79.82;95211.66;4992365;28;20208;-76
2021/12/18 00:30:19;;;;;;;18.70;9.63;;;;;;;2.85;79.16;95195.75;4992403;28;20538;-76
2021/12/18 00:32:45;;;;;;;18.70;8.93;;;;;;;2.96;78.73;95214.47;4991156;28;20181;-76
2021/12/18 00:35:11;;;;;;;17.53;9.03;;;;;;;2.94;78.59;95216.41;4992638;28;20173;-76
2021/12/18 00:37:36;;;;;;;15.57;8.73;;;;;;;2.96;78.40;95214.47;4992300;28;20177;-76
2021/12/18 00:40:08;;;;;;;15.07;8.33;;;;;;;2.95;78.44;95209.44;4992332;28;20292;-76
2021/12/18 00:42:42;;;;;;;22.90;9.97;;;;;;;2.94;78.80;95206.00;4994068;28;20157;-76
2021/12/18 00:45:14;;;;;;;20.93;9.40;;;;;;;2.94;78.23;95206.00;4998932;28;20177;-76
2021/12/18 00:47:40;;;;;;;19.83;10.10;;;;;;;2.96;78.61;95206.69;4998768;28;20177;-76
2021/12/18 00:50:10;;;;;;;21.50;11.77;;;;;;;2.97;77.74;95212.69;4998773;28;20223;-76
2021/12/18 00:52:35;;;;;;;22.83;9.90;;;;;;;3.00;77.78;95204.59;4999050;28;20207;-76
2021/12/18 00:55:04;;;;;;;19.93;9.13;;;;;;;2.96;77.86;95201.47;4998753;28;20681;-76
2021/12/18 00:57:30;;;;;;;17.03;10.13;;;;;;;2.90;78.00;95202.09;4998603;28;20200;-76
2021/12/18 01:00:00;;;;;;;15.80;9.07;;;;;;;2.73;78.03;95171.81;4998394;28;20658;-76
2021/12/18 01:02:27;;;;;;;16.53;8.17;;;;;;;2.87;77.63;95204.19;4998800;28;20180;-76
2021/12/18 01:04:53;;;;;;;15.23;6.63;;;;;;;2.77;77.92;95206.13;4998747;28;20651;-76
2021/12/18 01:07:18;;;;;;;19.53;7.93;;;;;;;2.74;77.58;95199.44;4998131;28;20288;-76
2021/12/18 01:12:09;;;;;;;17.37;8.47;;;;;;;2.54;77.92;95191.03;4998662;28;20179;-76
2021/12/18 01:22:45;;;;;;;17.73;9.23;;;;;;;2.65;77.36;95201.16;4998731;28;20567;-75
2021/12/18 01:25:11;;;;;;;14.90;8.03;;;;;;;2.65;77.78;95200.34;4982324;28;20623;-76
2021/12/18 01:27:37;;;;;;;16.80;7.50;;;;;;;2.64;77.99;95202.13;4998414;28;20212;-75
2021/12/18 01:30:05;;;;;;;18.37;8.00;;;;;;;2.62;78.15;95206.66;4998617;28;20203;-76
2021/12/18 01:32:31;;;;;;;15.90;8.30;;;;;;;2.60;78.41;95203.38;4998390;28;20176;-76
2021/12/18 01:34:56;;;;;;;16.97;8.13;;;;;;;2.56;78.20;95198.66;4997187;28;20181;-75
2021/12/18 01:37:23;;;;;;;18.43;8.07;;;;;;;2.54;78.34;95193.63;4998207;28;20247;-76
2021/12/18 01:39:48;;;;;;;14.77;7.93;;;;;;;2.45;78.57;95189.34;4998439;28;20189;-75
2021/12/18 01:52:39;;;;;;;15.10;8.27;;;;;;;2.38;77.95;95203.91;4997949;28;20243;-76
2021/12/18 01:55:05;;;;;;;10.10;6.73;;;;;;;2.19;79.09;95198.91;4994505;28;20177;-76
2021/12/18 01:57:32;;;;;;;12.47;6.97;;;;;;;2.16;79.82;95201.81;4995240;28;20655;-76
2021/12/18 01:59:58;;;;;;;17.73;7.50;;;;;;;2.11;79.58;95202.25;4994901;28;20598;-76
2021/12/18 02:02:24;;;;;;;15.50;7.63;;;;;;;2.22;80.07;95201.19;4994974;28;20173;-76
2021/12/18 02:04:51;;;;;;;18.30;9.83;;;;;;;2.18;79.53;95200.69;4986467;28;20264;-76
2021/12/18 02:07:17;;;;;;;19.33;9.20;;;;;;;2.04;80.31;95197.81;4994978;28;20181;-76
2021/12/18 02:09:59;;;;;;;17.50;9.17;;;;;;;2.01;80.29;95187.72;4995246;28;20216;-76
2021/12/18 02:12:33;;;;;;;20.83;9.77;;;;;;;1.92;80.09;95188.63;4987139;28;20173;-76
2021/12/18 02:22:59;;;;;;;19.67;10.40;;;;;;;1.92;81.73;95201.59;4995172;28;20173;-76
2021/12/18 02:25:25;;;;;;;19.93;11.23;;;;;;;1.80;81.88;95172.47;4994553;28;21040;-76
2021/12/18 02:27:52;;;;;;;20.37;9.67;;;;;;;1.85;81.17;95172.84;4994788;28;20212;-76
2021/12/18 02:30:23;;;;;;;20.53;10.87;;;;;;;2.07;81.27;95193.16;4994395;28;20201;-76
2021/12/18 02:32:50;;;;;;;21.13;10.50;;;;;;;2.18;80.95;95187.69;4976600;28;20170;-75
2021/12/18 02:35:31;;;;;;;22.00;11.00;;;;;;;2.21;80.85;95197.78;4994527;28;20182;-78
2021/12/18 02:38:45;;;;;;;22.33;9.47;;;;;;;2.27;80.94;95197.16;4994369;28;20188;-76
2021/12/18 02:41:22;;;;;;;13.67;8.33;;;;;;;2.30;80.44;95180.47;4994461;28;20200;-76
2021/12/18 02:43:48;;;;;;;13.30;7.60;;;;;;;2.44;80.30;95192.91;4994302;28;20227;-76
2021/12/18 02:46:19;;;;;;;15.97;8.50;;;;;;;2.50;79.67;95192.31;4993017;28;20177;-76
2021/12/18 02:48:46;;;;;;;14.33;7.73;;;;;;;2.54;79.65;95205.78;4994330;28;20169;-75
2021/12/18 02:51:12;;;;;;;14.40;8.00;;;;;;;2.43;79.43;95190.44;4994335;28;20173;-76
2021/12/18 02:53:43;;;;;;;12.40;7.63;;;;;;;2.58;79.28;95214.94;4994216;28;20228;-76
2021/12/18 02:56:12;;;;;;;13.80;7.50;;;;;;;2.58;79.39;95213.16;4994369;28;20208;-77
2021/12/18 02:58:40;;;;;;;21.67;10.20;;;;;;;2.65;79.14;95211.56;4985718;28;20662;-77
2021/12/18 03:01:09;;;;;;;21.13;9.17;;;;;;;2.55;78.98;95191.84;4993782;28;20217;-77
2021/12/18 03:03:38;;;;;;;12.93;7.27;;;;;;;2.69;79.00;95213.84;4994656;28;20189;-78
2021/12/18 03:06:20;;;;;;;21.13;9.30;;;;;;;2.70;79.28;95202.47;4992446;28;20267;-78
2021/12/18 03:24:42;;;;;;;24.03;8.90;;;;;;;2.68;81.10;95225.22;4978081;28;20173;-77
2021/12/18 03:27:08;;;;;;;16.13;8.90;;;;;;;2.58;81.86;95223.53;4993818;28;20173;-76
2021/12/18 03:29:33;;;;;;;15.83;7.50;;;;;;;2.50;82.55;95228.69;4993339;28;20204;-78
2021/12/18 03:31:59;;;;;;;13.47;7.57;;;;;;;2.49;83.49;95223.63;4993502;28;20176;-76
2021/12/18 03:34:25;;;;;;;15.67;8.90;;;;;;;2.27;84.31;95201.56;4993728;28;20505;-76
2021/12/18 03:36:51;;;;;;;29.23;11.60;;;;;;;2.39;84.83;95221.13;4993563;28;20252;-76
2021/12/18 03:39:17;;;;;;;30.53;13.40;;;;;;;2.43;85.31;95230.22;4993490;28;20173;-76
2021/12/18 03:41:44;;;;;;;24.40;10.87;;;;;;;2.36;85.27;95226.63;4993415;28;20201;-76
2021/12/18 03:44:09;;;;;;;17.93;10.20;;;;;;;2.37;85.66;95238.63;4993315;28;20177;-76
2021/12/18 03:46:35;;;;;;;17.13;8.97;;;;;;;1.99;85.41;95189.69;4993144;28;20176;-76
2021/12/18 03:49:00;;;;;;;15.87;8.87;;;;;;;2.11;86.13;95235.19;4993261;28;20184;-76
2021/12/18 03:51:26;;;;;;;16.00;8.60;;;;;;;2.08;86.10;95236.28;4992560;28;20189;-76
2021/12/18 03:53:51;;;;;;;28.87;14.13;;;;;;;2.08;86.79;95235.47;4992427;28;20181;-76
2021/12/18 03:56:17;;;;;;;16.37;8.40;;;;;;;2.05;86.29;95228.00;4993217;28;20188;-76
2021/12/18 03:58:43;;;;;;;14.80;8.67;;;;;;;2.12;86.29;95237.63;4993320;28;20580;-75
2021/12/18 04:01:08;;;;;;;16.77;9.70;;;;;;;2.01;86.11;95218.88;4992587;28;20232;-76
2021/12/18 04:03:34;;;;;;;26.17;11.47;;;;;;;2.21;85.57;95236.75;4992681;28;20228;-76
2021/12/18 04:05:59;;;;;;;28.80;13.30;;;;;;;2.22;85.09;95234.97;4993223;28;20185;-76
2021/12/18 04:08:24;;;;;;;16.70;9.40;;;;;;;2.10;85.31;95234.38;4992749;28;20173;-76
2021/12/18 04:10:50;;;;;;;16.83;9.87;;;;;;;2.08;85.64;95235.47;4992808;28;20650;-77
2021/12/18 04:13:16;;;;;;;13.67;7.67;;;;;;;1.96;85.78;95234.09;4992856;28;20200;-76
2021/12/18 04:15:41;;;;;;;12.87;6.53;;;;;;;1.60;86.22;95189.16;4992824;28;20188;-76
2021/12/18 04:18:07;;;;;;;11.33;6.50;;;;;;;1.92;86.00;95237.94;4992677;28;20177;-76
2021/12/18 04:20:32;;;;;;;13.13;7.63;;;;;;;1.94;86.62;95236.00;4992408;28;20197;-76
2021/12/18 04:22:57;;;;;;;13.83;7.60;;;;;;;2.03;86.58;95241.13;4992880;28;20180;-76
2021/12/18 04:25:23;;;;;;;12.37;6.73;;;;;;;1.99;85.88;95239.00;4992603;28;20541;-76
2021/12/18 04:27:49;;;;;;;28.27;12.43;;;;;;;2.05;86.00;95240.97;4992744;28;20180;-78
2021/12/18 04:30:15;;;;;;;14.67;7.77;;;;;;;2.05;85.63;95233.19;4992742;28;20213;-76
2021/12/18 04:32:40;;;;;;;14.80;8.47;;;;;;;2.04;84.92;95247.97;4991138;28;20176;-76
2021/12/18 04:35:06;;;;;;;19.10;10.47;;;;;;;2.01;85.03;95242.22;4992401;28;20184;-76
2021/12/18 04:37:32;;;;;;;17.33;8.53;;;;;;;2.07;84.82;95247.66;4992277;28;20172;-76
2021/12/18 04:39:57;;;;;;;14.67;8.90;;;;;;;2.07;84.58;95247.66;4992365;28;20208;-76
2021/12/18 04:42:23;;;;;;;16.43;8.53;;;;;;;2.06;84.38;95247.81;4992119;28;20173;-76
2021/12/18 04:44:48;;;;;;;15.70;8.57;;;;;;;1.99;84.43;95233.81;4992154;28;20236;-77
2021/12/18 04:47:14;;;;;;;13.00;7.10;;;;;;;2.08;83.56;95258.84;4992540;28;20208;-76
2021/12/18 04:49:40;;;;;;;13.80;6.87;;;;;;;2.11;84.34;95261.97;4992323;28;20173;-76
2021/12/18 04:52:06;;;;;;;15.60;8.00;;;;;;;1.99;84.12;95249.38;4992486;28;20177;-76
2021/12/18 04:54:31;;;;;;;13.07;7.33;;;;;;;1.97;84.39;95243.50;4992072;28;20176;-76
2021/12/18 04:56:57;;;;;;;12.67;7.33;;;;;;;2.10;84.29;95275.91;4992423;28;20185;-77
2021/12/18 04:59:22;;;;;;;12.70;6.60;;;;;;;2.15;83.88;95283.28;4992320;28;20181;-77
2021/12/18 05:01:50;;;;;;;12.43;6.83;;;;;;;2.21;83.21;95280.06;4992179;28;20216;-77
2021/12/18 05:04:15;;;;;;;13.80;7.23;;;;;;;2.16;83.28;95277.91;4992110;28;20295;-77
2021/12/18 05:06:45;;;;;;;27.23;14.07;;;;;;;2.25;83.45;95291.78;4991974;28;20187;-76
2021/12/18 05:09:12;;;;;;;26.83;12.87;;;;;;;2.20;82.96;95288.81;4991784;28;20201;-76
2021/12/18 05:11:38;;;;;;;26.77;12.27;;;;;;;2.27;83.09;95293.25;4991674;28;20647;-75
2021/12/18 05:14:03;;;;;;;20.13;10.53;;;;;;;2.27;82.26;95297.63;4991447;28;20666;-77
2021/12/18 05:16:29;;;;;;;21.77;10.83;;;;;;;2.13;82.13;95290.38;4985496;28;20192;-77
2021/12/18 05:18:54;;;;;;;25.07;11.83;;;;;;;2.05;81.85;95274.72;4990933;28;20650;-76
2021/12/18 05:21:20;;;;;;;46.30;18.00;;;;;;;2.16;81.80;95316.06;4989199;28;20272;-76
2021/12/18 05:23:46;;;;;;;38.57;15.63;;;;;;;2.09;82.13;95318.41;4991647;28;20184;-76
2021/12/18 05:26:11;;;;;;;40.37;14.20;;;;;;;2.08;82.72;95318.56;4991973;28;20177;-76
2021/12/18 05:28:36;;;;;;;33.23;13.40;;;;;;;2.11;82.93;95318.28;4992230;28;20173;-76
2021/12/18 05:31:02;;;;;;;30.53;13.50;;;;;;;1.85;83.18;95274.03;4995198;28;20176;-77
2021/12/18 05:33:27;;;;;;;29.70;14.87;;;;;;;2.18;82.53;95322.72;4995667;28;20212;-76
2021/12/18 05:35:53;;;;;;;26.20;12.63;;;;;;;2.25;82.17;95323.75;4995479;28;20581;-76
2021/12/18 05:38:18;;;;;;;31.93;13.53;;;;;;;2.13;82.53;95334.53;4995491;28;20177;-76
2021/12/18 05:40:44;;;;;;;29.67;13.07;;;;;;;2.14;83.25;95326.59;4995377;28;20205;-76
2021/12/18 05:43:09;;;;;;;32.27;14.67;;;;;;;1.90;82.74;95283.00;4994712;28;20315;-76
2021/12/18 05:45:37;;;;;;;34.90;14.27;;;;;;;2.21;82.40;95330.22;4995316;28;20181;-77
2021/12/18 05:48:02;;;;;;;31.17;14.60;;;;;;;2.22;82.22;95334.47;4995334;28;20693;-76
2021/12/18 05:50:29;;;;;;;33.97;15.73;;;;;;;2.21;82.38;95332.81;4995514;28;20181;-76
2021/12/18 05:52:56;;;;;;;37.73;17.67;;;;;;;2.26;82.25;95332.38;4995191;28;20184;-76
2021/12/18 05:55:24;;;;;;;40.13;18.83;;;;;;;2.27;82.27;95337.41;4995251;28;20651;-76
2021/12/18 05:57:49;;;;;;;41.87;19.13;;;;;;;2.29;82.08;95347.66;4995234;28;20192;-76
2021/12/18 06:00:16;;;;;;;40.97;18.93;;;;;;;2.34;82.25;95340.22;4994886;28;20205;-76
2021/12/18 06:02:42;;;;;;;46.43;19.23;;;;;;;2.20;81.38;95320.78;4994934;28;20225;-76
2021/12/18 06:05:08;;;;;;;46.43;20.87;;;;;;;2.20;81.69;95319.97;4995409;28;20177;-77
2021/12/18 06:10:20;;;;;;;42.63;17.30;;;;;;;2.37;82.69;95357.31;4988966;28;20220;-77
2021/12/18 06:12:45;;;;;;;28.17;12.90;;;;;;;2.32;82.96;95333.56;4994188;28;20181;-77
2021/12/18 06:15:10;;;;;;;34.73;13.37;;;;;;;2.25;83.22;95328.13;4995164;28;20543;-76
2021/12/18 06:17:37;;;;;;;27.30;10.87;;;;;;;2.23;82.91;95322.28;4994957;28;20568;-76
2021/12/18 06:20:05;;;;;;;27.70;11.73;;;;;;;2.45;83.62;95365.16;4990547;28;20198;-76
2021/12/18 06:22:31;;;;;;;27.33;13.00;;;;;;;2.40;83.68;95362.22;4990713;28;20416;-77
2021/12/18 06:25:04;;;;;;;21.23;10.93;;;;;;;2.41;84.19;95369.88;4994736;28;20184;-77
2021/12/18 06:27:30;;;;;;;23.23;12.03;;;;;;;2.43;83.95;95373.09;4995040;28;20185;-78
2021/12/18 06:29:55;;;;;;;31.77;13.53;;;;;;;2.30;83.65;95346.69;4995146;28;20239;-78
2021/12/18 06:32:28;;;;;;;25.13;13.00;;;;;;;2.50;83.42;95375.94;4994341;28;20188;-79
2021/12/18 06:34:54;;;;;;;28.97;13.57;;;;;;;2.49;83.53;95385.53;4994889;28;20721;-78
2021/12/18 06:37:19;;;;;;;25.43;13.80;;;;;;;2.35;83.26;95365.25;4995052;28;20244;-77
2021/12/18 06:39:44;;;;;;;28.23;13.20;;;;;;;2.54;83.47;95391.09;4994338;28;20222;-78
2021/12/18 06:42:10;;;;;;;28.90;15.13;;;;;;;2.52;83.42;95392.19;4994707;28;20248;-78
2021/12/18 06:44:35;;;;;;;29.80;13.43;;;;;;;2.52;83.30;95397.38;4994443;28;20534;-78
2021/12/18 06:47:01;;;;;;;28.00;13.37;;;;;;;2.49;83.41;95388.13;4994622;28;20658;-78
2021/12/18 06:49:26;;;;;;;25.53;11.40;;;;;;;2.54;84.03;95395.47;4994333;28;20661;-78
2021/12/18 06:51:52;;;;;;;26.37;14.40;;;;;;;2.46;83.89;95398.81;4994608;28;20300;-78
2021/12/18 06:54:17;;;;;;;27.07;14.07;;;;;;;2.44;84.40;95386.91;4994322;28;20603;-75
2021/12/18 06:56:42;;;;;;;17.67;10.30;;;;;;;2.53;84.70;95404.22;4994342;28;20177;-77
2021/12/18 06:59:08;;;;;;;22.17;10.57;;;;;;;2.54;84.42;95405.84;4994575;28;20177;-77
2021/12/18 07:01:33;;;;;;;18.13;9.83;;;;;;;2.37;84.07;95383.28;4992816;28;20204;-77
2021/12/18 07:03:59;;;;;;;31.10;14.20;;;;;;;2.62;84.52;95414.53;4994075;28;20213;-77
2021/12/18 07:06:24;;;;;;;29.40;16.47;;;;;;;2.67;83.86;95421.91;4992465;28;20187;-76
2021/12/18 07:08:50;;;;;;;32.23;15.53;;;;;;;2.73;84.18;95420.50;4993479;28;20662;-76
2021/12/18 07:11:16;;;;;;;28.93;13.77;;;;;;;2.59;83.74;95414.03;4993782;28;20219;-74
2021/12/18 07:13:41;;;;;;;25.43;12.80;;;;;;;2.69;84.49;95416.53;4993175;28;20177;-74
2021/12/18 07:16:07;;;;;;;25.13;13.23;;;;;;;2.48;83.65;95381.28;4993655;28;20181;-76
2021/12/18 07:18:32;;;;;;;45.77;17.43;;;;;;;2.62;83.47;95405.94;4993856;28;20185;-77
2021/12/18 07:20:58;;;;;;;28.63;14.87;;;;;;;2.69;83.86;95421.72;4993289;28;20209;-77
2021/12/18 07:23:24;;;;;;;19.87;11.90;;;;;;;2.48;84.10;95407.28;4993717;28;20228;-77
2021/12/18 07:25:50;;;;;;;22.63;11.00;;;;;;;2.32;85.07;95427.06;4993970;28;20356;-77
2021/12/18 07:28:16;;;;;;;14.60;7.73;;;;;;;2.33;85.28;95444.28;4993770;28;20178;-77
2021/12/18 07:30:41;;;;;;;14.13;7.57;;;;;;;2.33;85.41;95420.91;4993847;28;20175;-77
2021/12/18 07:33:10;;;;;;;19.13;9.30;;;;;;;2.41;84.83;95436.59;4993782;28;20185;-77
2021/12/18 07:35:38;;;;;;;19.13;11.03;;;;;;;2.38;85.44;95432.50;4993761;28;20528;-77
2021/12/18 07:38:03;;;;;;;16.63;9.27;;;;;;;2.58;85.09;95436.59;4993248;28;20193;-77
2021/12/18 07:40:32;;;;;;;19.07;10.63;;;;;;;2.71;84.22;95427.59;4992299;28;20255;-77
2021/12/18 07:42:58;;;;;;;22.40;11.30;;;;;;;2.82;84.66;95437.78;4993574;28;20192;-77
2021/12/18 07:45:33;;;;;;;21.03;10.10;;;;;;;3.71;83.06;95436.66;4993396;28;20540;-77
2021/12/18 07:47:58;;;;;;;22.23;11.07;;;;;;;6.03;76.10;95452.97;4993711;28;20264;-77
2021/12/18 07:50:24;;;;;;;20.57;12.63;;;;;;;6.79;67.88;95460.16;4993431;28;20248;-77
2021/12/18 07:52:51;;;;;;;26.90;15.67;;;;;;;6.72;67.43;95466.25;4992781;28;20177;-77
2021/12/18 07:55:18;;;;;;;30.90;15.30;;;;;;;6.45;68.14;95462.31;4993738;28;20177;-77
2021/12/18 07:57:44;;;;;;;29.10;16.40;;;;;;;6.19;69.06;95469.59;4993652;28;20177;-77
2021/12/18 08:00:13;;;;;;;39.17;18.73;;;;;;;5.92;69.66;95476.84;4993069;28;20208;-77
2021/12/18 08:02:39;;;;;;;44.47;21.80;;;;;;;5.58;70.60;95482.25;4993081;28;20621;-77
2021/12/18 08:05:05;;;;;;;48.07;22.00;;;;;;;4.96;71.64;95446.34;4993452;28;20300;-77
2021/12/18 08:07:31;;;;;;;38.13;18.67;;;;;;;4.73;72.63;95462.63;4993359;28;20558;-77
2021/12/18 08:09:56;;;;;;;42.77;19.17;;;;;;;4.76;73.39;95485.75;4993044;28;20166;-77
2021/12/18 08:12:21;;;;;;;28.77;13.70;;;;;;;4.54;73.65;95483.75;4993132;28;20662;-77
2021/12/18 08:14:47;;;;;;;30.53;14.93;;;;;;;4.57;74.54;95477.41;4993055;28;20646;-77
2021/12/18 08:17:12;;;;;;;21.63;10.53;;;;;;;4.67;73.18;95489.31;4993098;28;20165;-77
2021/12/18 08:19:38;;;;;;;25.17;13.30;;;;;;;4.37;73.16;95443.78;4992953;28;20169;-78
2021/12/18 08:22:03;;;;;;;25.57;13.67;;;;;;;4.59;73.21;95491.09;4992868;28;20208;-77
2021/12/18 08:24:29;;;;;;;28.40;15.00;;;;;;;5.00;74.90;95492.03;4992605;28;20173;-77
2021/12/18 08:26:55;;;;;;;38.23;18.60;;;;;;;6.13;73.32;95483.34;4992874;28;20543;-77
2021/12/18 08:29:23;;;;;;;41.27;17.73;;;;;;;7.65;68.38;95502.75;4992552;28;20196;-76
2021/12/18 08:31:51;;;;;;;45.87;19.27;;;;;;;8.61;63.29;95472.13;4993111;28;20191;-78
2021/12/18 08:34:18;;;;;;;33.37;16.97;;;;;;;9.87;60.01;95512.78;4992999;28;20192;-78
2021/12/18 08:36:44;;;;;;;25.20;14.17;;;;;;;9.57;56.82;95485.88;4992613;28;20173;-78
2021/12/18 08:39:13;;;;;;;18.83;11.53;;;;;;;9.68;57.23;95499.31;4992187;28;20180;-78
2021/12/18 08:41:42;;;;;;;25.10;15.60;;;;;;;9.81;58.32;95509.13;4992260;28;20280;-78
2021/12/18 08:44:08;;;;;;;21.50;13.27;;;;;;;9.25;57.12;95502.94;4992649;28;20231;-78
2021/12/18 08:46:36;;;;;;;17.63;11.23;;;;;;;8.68;59.58;95478.25;4992615;28;20224;-79
2021/12/18 08:49:05;;;;;;;22.63;11.90;;;;;;;9.10;60.57;95497.72;4992371;28;21023;-77
2021/12/18 08:51:31;;;;;;;19.73;10.13;;;;;;;9.23;58.54;95505.75;4991641;28;20658;-78
2021/12/18 08:53:57;;;;;;;12.43;7.53;;;;;;;9.40;58.54;95499.25;4987925;28;20563;-78
2021/12/18 08:56:23;;;;;;;18.33;9.63;;;;;;;9.47;57.96;95494.06;4991885;28;20200;-79
2021/12/18 08:58:50;;;;;;;23.87;11.13;;;;;;;9.36;56.72;95503.25;4992053;28;20181;-78
2021/12/18 09:01:16;;;;;;;22.37;10.20;;;;;;;8.83;58.14;95511.53;4990587;28;20248;-79
2021/12/18 09:03:45;;;;;;;19.17;8.90;;;;;;;8.15;59.43;95508.19;4994250;28;20698;-78
2021/12/18 09:06:11;;;;;;;23.77;11.70;;;;;;;7.53;60.56;95484.00;4995437;28;20185;-80
2021/12/18 09:08:36;;;;;;;20.13;9.27;;;;;;;7.35;61.42;95502.66;4995893;28;20734;-79
2021/12/18 09:11:02;;;;;;;20.37;10.73;;;;;;;7.05;62.09;95493.03;4995436;28;20181;-79
2021/12/18 09:13:27;;;;;;;22.50;13.60;;;;;;;6.75;63.11;95478.97;4994687;28;20177;-80
2021/12/18 09:15:53;;;;;;;18.93;9.83;;;;;;;6.76;64.61;95496.31;4995472;28;20189;-80
2021/12/18 09:18:18;;;;;;;12.97;7.00;;;;;;;6.49;65.81;95431.41;4993910;28;20177;-78
2021/12/18 09:20:46;;;;;;;12.87;6.60;;;;;;;6.75;65.56;95490.25;4995006;28;20201;-78
2021/12/18 09:23:15;;;;;;;17.47;8.23;;;;;;;6.71;65.39;95496.84;4995001;28;20179;-78
2021/12/18 09:25:41;;;;;;;12.90;7.10;;;;;;;6.42;67.13;95437.28;4994880;28;20557;-79
2021/12/18 09:28:06;;;;;;;13.80;7.40;;;;;;;6.76;66.16;95497.13;4995052;28;20176;-78
2021/12/18 09:30:32;;;;;;;18.70;10.77;;;;;;;6.47;67.18;95502.19;4994783;28;20247;-78
2021/12/18 09:33:00;;;;;;;11.37;5.87;;;;;;;6.27;66.07;95483.44;4995052;28;20591;-79
2021/12/18 09:35:26;;;;;;;12.73;6.73;;;;;;;6.28;66.82;95494.72;4991269;28;20220;-79
2021/12/18 09:37:54;;;;;;;23.50;9.80;;;;;;;6.29;67.74;95486.72;4994574;28;20185;-79
2021/12/18 09:40:23;;;;;;;19.53;9.30;;;;;;;6.52;67.19;95499.84;4994296;28;20693;-79
2021/12/18 09:42:48;;;;;;;21.73;11.67;;;;;;;6.41;66.74;95495.81;4994357;28;20177;-79
2021/12/18 09:45:16;;;;;;;29.17;14.63;;;;;;;6.35;68.01;95493.88;4994353;28;20173;-79
2021/12/18 09:47:44;;;;;;;25.40;11.60;;;;;;;6.19;67.29;95478.25;4995250;28;20752;-79
2021/12/18 09:50:10;;;;;;;20.00;8.90;;;;;;;6.16;68.02;95481.19;4994986;28;20623;-77
2021/12/18 09:52:36;;;;;;;16.73;9.90;;;;;;;5.83;67.71;95445.66;4994693;28;20181;-77
2021/12/18 09:55:05;;;;;;;22.70;11.60;;;;;;;6.08;68.08;95486.44;4995269;28;20188;-77
2021/12/18 09:57:31;;;;;;;27.47;10.80;;;;;;;5.93;68.43;95462.00;4995299;28;20177;-77
2021/12/18 09:59:56;;;;;;;16.47;7.37;;;;;;;6.06;68.66;95483.16;4994433;28;20567;-77
2021/12/18 10:02:22;;;;;;;17.57;9.10;;;;;;;5.93;68.44;95468.03;4991840;28;20193;-77
2021/12/18 10:04:48;;;;;;;13.57;7.23;;;;;;;6.09;67.83;95480.22;4992539;28;20283;-77
2021/12/18 10:07:21;;;;;;;24.37;12.27;;;;;;;6.09;68.62;95471.56;4994361;28;20189;-77
2021/12/18 10:09:49;;;;;;;12.43;7.73;;;;;;;6.15;69.14;95471.72;4994095;28;20181;-76
2021/12/18 10:12:23;;;;;;;14.20;7.70;;;;;;;5.95;69.10;95452.19;4994276;28;20180;-77
2021/12/18 10:14:59;;;;;;;13.87;8.17;;;;;;;6.30;69.08;95469.22;4989121;28;20646;-77
2021/12/18 10:17:35;;;;;;;27.60;10.03;;;;;;;6.51;68.57;95466.03;4991034;28;20192;-77
2021/12/18 10:20:09;;;;;;;23.27;12.27;;;;;;;6.40;68.45;95454.94;4991752;28;20177;-77
2021/12/18 10:22:36;;;;;;;22.63;13.47;;;;;;;6.36;68.01;95455.47;4991526;28;20179;-77
2021/12/18 10:25:07;;;;;;;30.03;15.23;;;;;;;6.42;68.51;95454.78;4993814;28;20177;-77
2021/12/18 10:27:33;;;;;;;26.70;12.50;;;;;;;6.58;68.55;95457.31;4993988;28;20547;-77
2021/12/18 10:30:12;;;;;;;14.47;6.80;;;;;;;6.75;65.65;95464.09;4992417;28;20180;-77
2021/12/18 10:32:38;;;;;;;9.00;4.53;;;;;;;6.92;64.06;95446.50;4993905;28;20183;-77
2021/12/18 10:35:04;;;;;;;5.83;3.53;;;;;;;6.96;63.44;95447.78;4993702;28;20260;-76
2021/12/18 10:37:34;;;;;;;5.80;4.20;;;;;;;6.97;62.30;95425.06;4994166;28;20565;-76
2021/12/18 10:40:08;;;;;;;13.00;6.73;;;;;;;6.72;63.36;95459.22;4993016;28;20188;-76
2021/12/18 10:42:42;;;;;;;13.00;7.60;;;;;;;6.20;65.52;95453.75;4994810;28;20195;-79
2021/12/18 10:45:19;;;;;;;6.47;3.20;;;;;;;6.21;64.16;95452.75;4994265;28;20239;-77
2021/12/18 10:47:47;;;;;;;7.07;3.90;;;;;;;6.26;64.45;95447.81;4994424;28;20239;-79
2021/12/18 10:50:28;;;;;;;8.33;3.80;;;;;;;6.19;64.48;95436.44;4994241;28;20181;-76
2021/12/18 10:52:56;;;;;;;6.23;3.93;;;;;;;6.25;64.21;95435.75;4994040;28;20177;-79
2021/12/18 10:55:35;;;;;;;25.37;11.40;;;;;;;6.38;62.99;95436.03;5006737;28;20165;-78
2021/12/18 10:58:03;;;;;;;6.60;4.80;;;;;;;6.42;64.23;95434.69;4991462;28;20248;-78
2021/12/18 11:00:48;;;;;;;8.70;5.10;;;;;;;6.33;64.69;95420.00;4993571;28;20285;-79
2021/12/18 11:03:33;;;;;;;5.23;3.73;;;;;;;6.42;64.43;95442.53;4989577;28;20220;-78
2021/12/18 11:06:24;;;;;;;6.60;3.73;;;;;;;6.31;61.83;95445.50;4992444;28;20266;-79
2021/12/18 11:09:14;;;;;;;3.73;2.07;;;;;;;6.02;58.93;95442.69;4991604;28;20173;-80
2021/12/18 11:14:19;;;;;;;2.53;1.90;;;;;;;5.78;60.38;95440.13;4993100;28;20189;-78
2021/12/18 11:16:54;;;;;;;4.20;2.70;;;;;;;5.79;60.05;95429.50;4991456;28;20564;-78
2021/12/18 11:19:24;;;;;;;2.33;1.93;;;;;;;5.80;59.35;95435.53;4993521;28;20173;-78
2021/12/18 11:22:19;;;;;;;4.93;2.40;;;;;;;5.75;60.41;95436.03;4993367;28;20288;-76
2021/12/18 11:24:58;;;;;;;3.83;2.40;;;;;;;5.55;59.95;95414.69;4991807;28;20647;-75
2021/12/18 11:27:23;;;;;;;5.07;1.70;;;;;;;5.65;60.81;95424.94;4992481;28;20532;-75
2021/12/18 11:30:06;;;;;;;2.53;2.23;;;;;;;5.70;60.49;95440.94;4993723;28;20181;-76
2021/12/18 11:32:36;;;;;;;3.83;2.00;;;;;;;5.70;61.41;95438.34;4990959;28;20169;-76
2021/12/18 11:35:07;;;;;;;5.40;3.03;;;;;;;5.80;61.18;95440.75;4984996;28;20184;-77
2021/12/18 11:37:45;;;;;;;4.53;3.07;;;;;;;5.83;61.86;95440.41;4993582;28;20170;-77
2021/12/18 11:40:15;;;;;;;3.20;2.40;;;;;;;5.91;61.00;95449.09;5008512;28;20203;-78
2021/12/18 11:42:42;;;;;;;4.37;2.37;;;;;;;5.94;61.29;95445.34;4993502;28;20173;-76
2021/12/18 11:45:09;;;;;;;5.43;3.13;;;;;;;5.89;60.35;95445.81;4993379;28;20169;-76
2021/12/18 11:47:40;;;;;;;2.97;2.37;;;;;;;5.91;60.37;95443.03;4992442;28;20204;-76
2021/12/18 11:50:38;;;;;;;4.40;2.40;;;;;;;5.85;61.22;95433.25;4992432;28;20181;-76
2021/12/18 11:53:10;;;;;;;4.13;2.30;;;;;;;5.82;62.14;95437.00;4991510;28;20165;-78
2021/12/18 11:55:50;;;;;;;4.77;2.67;;;;;;;5.91;61.75;95445.66;4992717;28;20283;-76
2021/12/18 11:58:16;;;;;;;7.60;3.00;;;;;;;5.99;61.91;95443.84;4993280;28;20704;-76
2021/12/18 12:00:51;;;;;;;4.00;2.83;;;;;;;6.02;61.47;95448.72;4992545;28;20189;-76
2021/12/18 12:03:40;;;;;;;3.30;2.27;;;;;;;6.04;61.78;95454.63;4992586;28;21062;-76
2021/12/18 12:06:41;;;;;;;6.50;3.77;;;;;;;5.87;64.12;95457.41;4992984;28;20173;-78
2021/12/18 12:09:22;;;;;;;4.67;3.03;;;;;;;5.72;65.95;95453.81;4990545;28;20654;-76
2021/12/18 12:11:58;;;;;;;9.27;4.53;;;;;;;5.39;67.15;95421.72;4993109;28;20169;-78
2021/12/18 12:14:26;;;;;;;15.23;9.23;;;;;;;5.24;68.76;95451.09;4992451;28;20230;-76
2021/12/18 12:16:52;;;;;;;11.87;6.53;;;;;;;5.01;70.47;95449.31;4992677;28;20165;-75
2021/12/18 12:19:39;;;;;;;16.43;9.37;;;;;;;4.87;71.05;95453.34;4992057;28;20176;-77
2021/12/18 12:22:07;;;;;;;20.20;12.27;;;;;;;4.72;71.63;95442.75;4991434;28;20189;-77
2021/12/18 12:24:57;;;;;;;14.30;8.07;;;;;;;4.83;71.75;95447.66;4989125;28;20177;-77
2021/12/18 12:27:26;;;;;;;9.03;4.60;;;;;;;4.78;71.61;95444.69;4989750;28;20276;-77